sensor_id;sensor_type;location;lat;lon;timestamp;P1;durP1;ratioP1;P2;durP2;ratioP2
15816;SDS011;8009;50.070;8.232;2023-04-25T00:00:15;13.07;;;12.57;;
15816;SDS011;8009;50.070;8.232;2023-04-25T00:02:43;13.13;;;12.63;;
15816;SDS011;8009;50.070;8.232;2023-04-25T00:17:13;12.47;;;12.00;;
15816;SDS011;8009;50.070;8.232;2023-04-25T00:19:43;11.87;;;11.47;;
15816;SDS011;8009;50.070;8.232;2023-04-25T00:22:15;11.77;;;11.37;;
15816;SDS011;8009;50.070;8.232;2023-04-25T00:24:44;12.30;;;11.90;;
15816;SDS011;8009;50.070;8.232;2023-04-25T00:27:12;13.40;;;12.90;;
15816;SDS011;8009;50.070;8.232;2023-04-25T00:29:40;11.37;;;10.97;;
15816;SDS011;8009;50.070;8.232;2023-04-25T00:32:08;11.83;;;11.43;;
15816;SDS011;8009;50.070;8.232;2023-04-25T00:44:15;12.77;;;12.27;;
15816;SDS011;8009;50.070;8.232;2023-04-25T00:46:44;10.73;;;10.33;;
15816;SDS011;8009;50.070;8.232;2023-04-25T00:52:02;13.27;;;12.77;;
15816;SDS011;8009;50.070;8.232;2023-04-25T00:54:30;12.53;;;12.07;;
15816;SDS011;8009;50.070;8.232;2023-04-25T01:28:40;12.60;;;12.10;;
15816;SDS011;8009;50.070;8.232;2023-04-25T01:31:09;11.07;;;10.67;;
15816;SDS011;8009;50.070;8.232;2023-04-25T01:33:38;11.73;;;11.33;;
15816;SDS011;8009;50.070;8.232;2023-04-25T01:36:06;13.53;;;13.03;;
15816;SDS011;8009;50.070;8.232;2023-04-25T01:38:37;12.33;;;11.90;;
15816;SDS011;8009;50.070;8.232;2023-04-25T01:53:51;12.93;;;12.43;;
15816;SDS011;8009;50.070;8.232;2023-04-25T01:56:20;11.87;;;11.47;;
15816;SDS011;8009;50.070;8.232;2023-04-25T01:58:48;12.87;;;12.37;;
15816;SDS011;8009;50.070;8.232;2023-04-25T02:01:17;13.97;;;13.47;;
15816;SDS011;8009;50.070;8.232;2023-04-25T02:03:45;12.77;;;12.27;;
15816;SDS011;8009;50.070;8.232;2023-04-25T02:06:16;10.90;;;10.50;;
15816;SDS011;8009;50.070;8.232;2023-04-25T02:08:44;12.00;;;11.60;;
15816;SDS011;8009;50.070;8.232;2023-04-25T02:11:15;13.83;;;13.33;;
15816;SDS011;8009;50.070;8.232;2023-04-25T02:17:05;12.27;;;11.83;;
15816;SDS011;8009;50.070;8.232;2023-04-25T02:19:35;15.57;;;14.98;;
15816;SDS011;8009;50.070;8.232;2023-04-25T02:22:03;12.87;;;12.37;;
15816;SDS011;8009;50.070;8.232;2023-04-25T02:49:32;11.60;;;11.20;;
15816;SDS011;8009;50.070;8.232;2023-04-25T02:52:00;12.87;;;12.37;;
15816;SDS011;8009;50.070;8.232;2023-04-25T02:54:28;11.43;;;11.03;;
15816;SDS011;8009;50.070;8.232;2023-04-25T03:06:51;12.53;;;12.03;;
15816;SDS011;8009;50.070;8.232;2023-04-25T03:09:20;12.73;;;12.23;;
15816;SDS011;8009;50.070;8.232;2023-04-25T03:11:48;12.07;;;11.67;;
15816;SDS011;8009;50.070;8.232;2023-04-25T03:14:16;12.90;;;12.40;;
15816;SDS011;8009;50.070;8.232;2023-04-25T03:16:46;11.70;;;11.27;;
15816;SDS011;8009;50.070;8.232;2023-04-25T03:19:36;12.63;;;12.13;;
15816;SDS011;8009;50.070;8.232;2023-04-25T03:22:13;11.67;;;11.27;;
15816;SDS011;8009;50.070;8.232;2023-04-25T03:24:41;12.33;;;11.83;;
15816;SDS011;8009;50.070;8.232;2023-04-25T03:27:10;11.97;;;11.53;;
15816;SDS011;8009;50.070;8.232;2023-04-25T03:29:40;11.30;;;10.90;;
15816;SDS011;8009;50.070;8.232;2023-04-25T03:32:09;13.50;;;13.00;;
15816;SDS011;8009;50.070;8.232;2023-04-25T03:34:37;13.03;;;12.53;;
15816;SDS011;8009;50.070;8.232;2023-04-25T03:43:36;16.75;;;16.15;;
15816;SDS011;8009;50.070;8.232;2023-04-25T03:46:04;13.63;;;13.13;;
15816;SDS011;8009;50.070;8.232;2023-04-25T03:48:32;12.53;;;12.03;;
15816;SDS011;8009;50.070;8.232;2023-04-25T03:51:23;11.77;;;11.37;;
15816;SDS011;8009;50.070;8.232;2023-04-25T04:15:27;12.80;;;12.30;;
15816;SDS011;8009;50.070;8.232;2023-04-25T04:17:57;11.37;;;10.97;;
15816;SDS011;8009;50.070;8.232;2023-04-25T04:29:49;11.73;;;11.33;;
15816;SDS011;8009;50.070;8.232;2023-04-25T04:32:21;11.87;;;11.47;;
15816;SDS011;8009;50.070;8.232;2023-04-25T04:34:50;11.80;;;11.40;;
15816;SDS011;8009;50.070;8.232;2023-04-25T04:37:20;11.90;;;11.40;;
15816;SDS011;8009;50.070;8.232;2023-04-25T04:39:49;11.93;;;11.53;;
15816;SDS011;8009;50.070;8.232;2023-04-25T04:42:34;12.90;;;12.40;;
15816;SDS011;8009;50.070;8.232;2023-04-25T04:45:02;12.03;;;11.57;;
15816;SDS011;8009;50.070;8.232;2023-04-25T04:47:33;12.43;;;11.93;;
15816;SDS011;8009;50.070;8.232;2023-04-25T04:56:49;12.83;;;12.33;;
15816;SDS011;8009;50.070;8.232;2023-04-25T04:59:17;11.87;;;11.47;;
15816;SDS011;8009;50.070;8.232;2023-04-25T05:01:46;12.63;;;12.13;;
15816;SDS011;8009;50.070;8.232;2023-04-25T05:10:51;12.33;;;11.83;;
15816;SDS011;8009;50.070;8.232;2023-04-25T05:19:40;12.83;;;12.33;;
15816;SDS011;8009;50.070;8.232;2023-04-25T05:22:08;12.07;;;11.67;;
15816;SDS011;8009;50.070;8.232;2023-04-25T05:24:37;12.10;;;11.67;;
15816;SDS011;8009;50.070;8.232;2023-04-25T05:27:07;12.80;;;12.30;;
15816;SDS011;8009;50.070;8.232;2023-04-25T05:29:36;12.57;;;12.07;;
15816;SDS011;8009;50.070;8.232;2023-04-25T05:32:12;12.33;;;11.83;;
15816;SDS011;8009;50.070;8.232;2023-04-25T05:40:36;12.93;;;12.43;;
15816;SDS011;8009;50.070;8.232;2023-04-25T05:43:07;11.37;;;10.97;;
15816;SDS011;8009;50.070;8.232;2023-04-25T05:45:35;11.77;;;11.37;;
15816;SDS011;8009;50.070;8.232;2023-04-25T05:48:03;12.80;;;12.30;;
15816;SDS011;8009;50.070;8.232;2023-04-25T05:50:32;13.77;;;13.27;;
15816;SDS011;8009;50.070;8.232;2023-04-25T05:53:00;12.60;;;12.10;;
15816;SDS011;8009;50.070;8.232;2023-04-25T05:55:30;12.60;;;12.10;;
15816;SDS011;8009;50.070;8.232;2023-04-25T05:57:59;12.53;;;12.03;;
15816;SDS011;8009;50.070;8.232;2023-04-25T06:00:30;12.10;;;11.67;;
15816;SDS011;8009;50.070;8.232;2023-04-25T06:02:58;12.27;;;11.83;;
15816;SDS011;8009;50.070;8.232;2023-04-25T06:05:27;11.93;;;11.50;;
15816;SDS011;8009;50.070;8.232;2023-04-25T06:07:55;12.00;;;11.60;;
15816;SDS011;8009;50.070;8.232;2023-04-25T06:10:23;11.90;;;11.50;;
15816;SDS011;8009;50.070;8.232;2023-04-25T06:12:52;13.00;;;12.50;;
15816;SDS011;8009;50.070;8.232;2023-04-25T06:15:20;13.03;;;12.53;;
15816;SDS011;8009;50.070;8.232;2023-04-25T06:17:51;11.20;;;10.80;;
15816;SDS011;8009;50.070;8.232;2023-04-25T06:20:19;11.37;;;10.97;;
15816;SDS011;8009;50.070;8.232;2023-04-25T06:22:49;11.90;;;11.50;;
15816;SDS011;8009;50.070;8.232;2023-04-25T06:25:18;11.87;;;11.47;;
15816;SDS011;8009;50.070;8.232;2023-04-25T06:27:46;11.27;;;10.87;;
15816;SDS011;8009;50.070;8.232;2023-04-25T06:30:14;12.23;;;11.80;;
15816;SDS011;8009;50.070;8.232;2023-04-25T06:32:47;12.93;;;12.43;;
15816;SDS011;8009;50.070;8.232;2023-04-25T06:35:18;12.47;;;11.97;;
15816;SDS011;8009;50.070;8.232;2023-04-25T06:37:47;11.53;;;11.13;;
15816;SDS011;8009;50.070;8.232;2023-04-25T06:40:15;12.70;;;12.20;;
15816;SDS011;8009;50.070;8.232;2023-04-25T06:42:43;13.00;;;12.50;;
15816;SDS011;8009;50.070;8.232;2023-04-25T06:45:11;12.30;;;11.87;;
15816;SDS011;8009;50.070;8.232;2023-04-25T06:47:40;11.43;;;11.03;;
15816;SDS011;8009;50.070;8.232;2023-04-25T06:50:08;12.00;;;11.57;;
15816;SDS011;8009;50.070;8.232;2023-04-25T06:52:40;11.80;;;11.40;;
15816;SDS011;8009;50.070;8.232;2023-04-25T06:55:08;12.77;;;12.27;;
15816;SDS011;8009;50.070;8.232;2023-04-25T06:57:37;13.77;;;13.27;;
15816;SDS011;8009;50.070;8.232;2023-04-25T07:00:06;12.97;;;12.47;;
15816;SDS011;8009;50.070;8.232;2023-04-25T07:02:36;11.37;;;10.97;;
15816;SDS011;8009;50.070;8.232;2023-04-25T07:05:05;12.63;;;12.13;;
15816;SDS011;8009;50.070;8.232;2023-04-25T07:07:34;12.63;;;12.13;;
15816;SDS011;8009;50.070;8.232;2023-04-25T07:10:05;12.90;;;12.40;;
15816;SDS011;8009;50.070;8.232;2023-04-25T07:12:34;15.70;;;15.10;;
15816;SDS011;8009;50.070;8.232;2023-04-25T07:15:02;14.23;;;13.73;;
15816;SDS011;8009;50.070;8.232;2023-04-25T07:17:33;13.30;;;12.80;;
15816;SDS011;8009;50.070;8.232;2023-04-25T07:20:01;13.47;;;12.97;;
15816;SDS011;8009;50.070;8.232;2023-04-25T07:22:30;13.07;;;12.57;;
15816;SDS011;8009;50.070;8.232;2023-04-25T07:24:59;13.23;;;12.73;;
15816;SDS011;8009;50.070;8.232;2023-04-25T07:27:31;12.07;;;11.67;;
15816;SDS011;8009;50.070;8.232;2023-04-25T07:30:00;12.00;;;11.60;;
15816;SDS011;8009;50.070;8.232;2023-04-25T07:32:28;12.43;;;11.97;;
15816;SDS011;8009;50.070;8.232;2023-04-25T07:34:57;11.83;;;11.43;;
15816;SDS011;8009;50.070;8.232;2023-04-25T07:37:26;12.37;;;11.90;;
15816;SDS011;8009;50.070;8.232;2023-04-25T07:39:55;11.53;;;11.13;;
15816;SDS011;8009;50.070;8.232;2023-04-25T07:42:23;11.70;;;11.20;;
15816;SDS011;8009;50.070;8.232;2023-04-25T07:44:54;13.57;;;13.07;;
15816;SDS011;8009;50.070;8.232;2023-04-25T07:47:22;11.87;;;11.47;;
15816;SDS011;8009;50.070;8.232;2023-04-25T07:49:51;12.67;;;12.17;;
15816;SDS011;8009;50.070;8.232;2023-04-25T07:52:19;11.63;;;11.23;;
15816;SDS011;8009;50.070;8.232;2023-04-25T07:54:47;10.40;;;10.00;;
15816;SDS011;8009;50.070;8.232;2023-04-25T07:57:16;13.53;;;13.03;;
15816;SDS011;8009;50.070;8.232;2023-04-25T07:59:45;13.50;;;13.00;;
15816;SDS011;8009;50.070;8.232;2023-04-25T08:02:16;13.00;;;12.50;;
15816;SDS011;8009;50.070;8.232;2023-04-25T08:04:44;11.40;;;11.00;;
15816;SDS011;8009;50.070;8.232;2023-04-25T08:07:14;12.90;;;12.40;;
15816;SDS011;8009;50.070;8.232;2023-04-25T08:09:43;10.90;;;10.50;;
15816;SDS011;8009;50.070;8.232;2023-04-25T08:12:11;13.70;;;13.20;;
15816;SDS011;8009;50.070;8.232;2023-04-25T08:14:39;12.93;;;12.43;;
15816;SDS011;8009;50.070;8.232;2023-04-25T08:17:07;12.57;;;12.07;;
15816;SDS011;8009;50.070;8.232;2023-04-25T08:19:38;11.37;;;10.97;;
15816;SDS011;8009;50.070;8.232;2023-04-25T08:22:07;13.87;;;13.37;;
15816;SDS011;8009;50.070;8.232;2023-04-25T08:24:35;11.90;;;11.50;;
15816;SDS011;8009;50.070;8.232;2023-04-25T08:27:03;12.67;;;12.17;;
15816;SDS011;8009;50.070;8.232;2023-04-25T08:29:33;13.90;;;13.40;;
15816;SDS011;8009;50.070;8.232;2023-04-25T08:32:01;12.83;;;12.33;;
15816;SDS011;8009;50.070;8.232;2023-04-25T08:34:29;12.90;;;12.40;;
15816;SDS011;8009;50.070;8.232;2023-04-25T08:37:00;10.53;;;10.13;;
15816;SDS011;8009;50.070;8.232;2023-04-25T08:39:29;12.50;;;12.00;;
15816;SDS011;8009;50.070;8.232;2023-04-25T08:41:57;13.40;;;12.90;;
15816;SDS011;8009;50.070;8.232;2023-04-25T08:44:26;13.70;;;13.20;;
15816;SDS011;8009;50.070;8.232;2023-04-25T08:46:55;15.93;;;15.33;;
15816;SDS011;8009;50.070;8.232;2023-04-25T08:49:24;13.17;;;12.67;;
15816;SDS011;8009;50.070;8.232;2023-04-25T08:51:53;13.50;;;13.00;;
15816;SDS011;8009;50.070;8.232;2023-04-25T08:54:30;13.33;;;12.83;;
15816;SDS011;8009;50.070;8.232;2023-04-25T08:57:00;12.60;;;12.10;;
15816;SDS011;8009;50.070;8.232;2023-04-25T08:59:29;17.93;;;17.23;;
15816;SDS011;8009;50.070;8.232;2023-04-25T09:01:58;14.10;;;13.60;;
15816;SDS011;8009;50.070;8.232;2023-04-25T09:04:29;14.43;;;13.90;;
15816;SDS011;8009;50.070;8.232;2023-04-25T09:06:58;11.77;;;11.27;;
15816;SDS011;8009;50.070;8.232;2023-04-25T09:09:26;11.90;;;11.50;;
15816;SDS011;8009;50.070;8.232;2023-04-25T09:11:57;13.63;;;13.13;;
15816;SDS011;8009;50.070;8.232;2023-04-25T09:14:27;11.73;;;11.33;;
15816;SDS011;8009;50.070;8.232;2023-04-25T09:16:59;14.33;;;13.83;;
15816;SDS011;8009;50.070;8.232;2023-04-25T09:19:33;14.50;;;13.80;;
15816;SDS011;8009;50.070;8.232;2023-04-25T09:22:05;14.10;;;13.60;;
15816;SDS011;8009;50.070;8.232;2023-04-25T09:24:35;15.40;;;14.80;;
15816;SDS011;8009;50.070;8.232;2023-04-25T09:27:08;13.37;;;12.87;;
15816;SDS011;8009;50.070;8.232;2023-04-25T09:29:38;14.10;;;13.60;;
15816;SDS011;8009;50.070;8.232;2023-04-25T09:32:10;15.73;;;15.13;;
15816;SDS011;8009;50.070;8.232;2023-04-25T09:34:40;15.73;;;15.13;;
15816;SDS011;8009;50.070;8.232;2023-04-25T09:37:09;15.73;;;15.13;;
15816;SDS011;8009;50.070;8.232;2023-04-25T09:39:38;29.50;;;28.33;;
15816;SDS011;8009;50.070;8.232;2023-04-25T09:42:09;33.27;;;31.97;;
15816;SDS011;8009;50.070;8.232;2023-04-25T09:44:41;27.60;;;26.50;;
15816;SDS011;8009;50.070;8.232;2023-04-25T09:47:10;28.73;;;27.63;;
15816;SDS011;8009;50.070;8.232;2023-04-25T09:49:40;31.57;;;30.33;;
15816;SDS011;8009;50.070;8.232;2023-04-25T09:52:12;25.27;;;24.30;;
15816;SDS011;8009;50.070;8.232;2023-04-25T09:54:42;29.47;;;28.27;;
15816;SDS011;8009;50.070;8.232;2023-04-25T09:57:14;29.10;;;27.97;;
15816;SDS011;8009;50.070;8.232;2023-04-25T09:59:45;33.50;;;32.20;;
15816;SDS011;8009;50.070;8.232;2023-04-25T10:02:15;30.23;;;29.07;;
15816;SDS011;8009;50.070;8.232;2023-04-25T10:04:47;30.17;;;28.97;;
15816;SDS011;8009;50.070;8.232;2023-04-25T10:07:20;30.13;;;29.00;;
15816;SDS011;8009;50.070;8.232;2023-04-25T10:09:52;34.10;;;32.77;;
15816;SDS011;8009;50.070;8.232;2023-04-25T10:12:28;35.67;;;34.27;;
15816;SDS011;8009;50.070;8.232;2023-04-25T10:14:57;19.43;;;18.73;;
15816;SDS011;8009;50.070;8.232;2023-04-25T10:17:26;16.87;;;16.27;;
15816;SDS011;8009;50.070;8.232;2023-04-25T10:19:55;18.03;;;17.33;;
15816;SDS011;8009;50.070;8.232;2023-04-25T10:22:29;21.93;;;21.10;;
15816;SDS011;8009;50.070;8.232;2023-04-25T10:25:00;21.90;;;21.10;;
15816;SDS011;8009;50.070;8.232;2023-04-25T10:27:32;20.17;;;19.40;;
15816;SDS011;8009;50.070;8.232;2023-04-25T10:30:02;21.73;;;20.90;;
15816;SDS011;8009;50.070;8.232;2023-04-25T10:32:35;21.53;;;20.73;;
15816;SDS011;8009;50.070;8.232;2023-04-25T10:35:10;19.97;;;19.20;;
15816;SDS011;8009;50.070;8.232;2023-04-25T10:40:27;16.53;;;15.83;;
15816;SDS011;8009;50.070;8.232;2023-04-25T10:43:32;20.10;;;19.30;;
15816;SDS011;8009;50.070;8.232;2023-04-25T10:46:13;19.00;;;18.20;;
15816;SDS011;8009;50.070;8.232;2023-04-25T10:48:50;18.23;;;17.53;;
15816;SDS011;8009;50.070;8.232;2023-04-25T10:51:20;20.47;;;19.67;;
15816;SDS011;8009;50.070;8.232;2023-04-25T10:53:57;14.70;;;14.17;;
15816;SDS011;8009;50.070;8.232;2023-04-25T10:56:26;18.83;;;18.13;;
15816;SDS011;8009;50.070;8.232;2023-04-25T10:59:08;20.50;;;19.70;;
15816;SDS011;8009;50.070;8.232;2023-04-25T11:01:38;48.90;;;46.92;;
15816;SDS011;8009;50.070;8.232;2023-04-25T11:04:21;37.80;;;36.33;;
15816;SDS011;8009;50.070;8.232;2023-04-25T11:07:02;33.00;;;31.73;;
15816;SDS011;8009;50.070;8.232;2023-04-25T11:09:38;22.30;;;21.40;;
15816;SDS011;8009;50.070;8.232;2023-04-25T11:12:07;23.27;;;22.33;;
15816;SDS011;8009;50.070;8.232;2023-04-25T11:14:40;28.90;;;27.73;;
15816;SDS011;8009;50.070;8.232;2023-04-25T11:17:08;21.17;;;20.37;;
15816;SDS011;8009;50.070;8.232;2023-04-25T11:19:37;21.27;;;20.47;;
15816;SDS011;8009;50.070;8.232;2023-04-25T11:22:05;19.33;;;18.60;;
15816;SDS011;8009;50.070;8.232;2023-04-25T11:24:34;21.83;;;21.03;;
15816;SDS011;8009;50.070;8.232;2023-04-25T11:27:03;20.30;;;19.50;;
15816;SDS011;8009;50.070;8.232;2023-04-25T11:29:33;21.37;;;20.53;;
15816;SDS011;8009;50.070;8.232;2023-04-25T11:32:05;27.57;;;26.47;;
15816;SDS011;8009;50.070;8.232;2023-04-25T11:34:33;18.27;;;17.57;;
15816;SDS011;8009;50.070;8.232;2023-04-25T11:37:02;20.70;;;19.87;;
15816;SDS011;8009;50.070;8.232;2023-04-25T11:39:31;20.97;;;20.17;;
15816;SDS011;8009;50.070;8.232;2023-04-25T11:42:00;37.07;;;35.60;;
15816;SDS011;8009;50.070;8.232;2023-04-25T11:44:28;41.97;;;40.33;;
15816;SDS011;8009;50.070;8.232;2023-04-25T11:46:57;35.57;;;34.17;;
15816;SDS011;8009;50.070;8.232;2023-04-25T11:49:32;26.67;;;25.67;;
15816;SDS011;8009;50.070;8.232;2023-04-25T11:52:00;37.17;;;35.70;;
15816;SDS011;8009;50.070;8.232;2023-04-25T11:54:29;34.63;;;33.27;;
15816;SDS011;8009;50.070;8.232;2023-04-25T11:56:57;23.40;;;22.50;;
15816;SDS011;8009;50.070;8.232;2023-04-25T11:59:26;19.13;;;18.23;;
15816;SDS011;8009;50.070;8.232;2023-04-25T12:01:55;20.27;;;19.47;;
15816;SDS011;8009;50.070;8.232;2023-04-25T12:04:24;19.70;;;18.97;;
15816;SDS011;8009;50.070;8.232;2023-04-25T12:06:55;20.37;;;19.53;;
15816;SDS011;8009;50.070;8.232;2023-04-25T12:09:28;24.67;;;23.67;;
15816;SDS011;8009;50.070;8.232;2023-04-25T12:11:58;25.60;;;24.57;;
15816;SDS011;8009;50.070;8.232;2023-04-25T12:14:31;35.83;;;34.43;;
15816;SDS011;8009;50.070;8.232;2023-04-25T12:17:01;38.93;;;37.40;;
15816;SDS011;8009;50.070;8.232;2023-04-25T12:19:34;41.73;;;40.10;;
15816;SDS011;8009;50.070;8.232;2023-04-25T12:22:18;34.35;;;33.03;;
15816;SDS011;8009;50.070;8.232;2023-04-25T12:24:47;34.93;;;33.53;;
15816;SDS011;8009;50.070;8.232;2023-04-25T12:27:16;36.80;;;35.20;;
15816;SDS011;8009;50.070;8.232;2023-04-25T12:29:50;39.03;;;37.50;;
15816;SDS011;8009;50.070;8.232;2023-04-25T12:32:19;38.47;;;36.97;;
15816;SDS011;8009;50.070;8.232;2023-04-25T12:34:48;33.87;;;32.57;;
15816;SDS011;8009;50.070;8.232;2023-04-25T12:37:19;20.60;;;19.70;;
15816;SDS011;8009;50.070;8.232;2023-04-25T12:39:47;28.10;;;26.90;;
15816;SDS011;8009;50.070;8.232;2023-04-25T12:42:15;36.50;;;35.10;;
15816;SDS011;8009;50.070;8.232;2023-04-25T12:44:44;32.93;;;31.63;;
15816;SDS011;8009;50.070;8.232;2023-04-25T12:47:12;37.87;;;36.37;;
15816;SDS011;8009;50.070;8.232;2023-04-25T12:49:41;41.53;;;39.87;;
15816;SDS011;8009;50.070;8.232;2023-04-25T12:52:11;42.27;;;40.57;;
15816;SDS011;8009;50.070;8.232;2023-04-25T12:54:42;35.13;;;33.73;;
15816;SDS011;8009;50.070;8.232;2023-04-25T12:57:10;43.60;;;41.90;;
15816;SDS011;8009;50.070;8.232;2023-04-25T12:59:39;40.20;;;38.60;;
15816;SDS011;8009;50.070;8.232;2023-04-25T13:02:07;43.80;;;42.03;;
15816;SDS011;8009;50.070;8.232;2023-04-25T13:04:36;45.03;;;43.27;;
15816;SDS011;8009;50.070;8.232;2023-04-25T13:07:04;44.77;;;42.97;;
15816;SDS011;8009;50.070;8.232;2023-04-25T13:09:32;31.20;;;30.00;;
15816;SDS011;8009;50.070;8.232;2023-04-25T13:12:04;41.63;;;40.00;;
15816;SDS011;8009;50.070;8.232;2023-04-25T13:14:32;41.67;;;40.03;;
15816;SDS011;8009;50.070;8.232;2023-04-25T13:17:01;40.30;;;38.70;;
15816;SDS011;8009;50.070;8.232;2023-04-25T13:19:29;18.67;;;17.97;;
15816;SDS011;8009;50.070;8.232;2023-04-25T13:21:58;25.53;;;24.53;;
15816;SDS011;8009;50.070;8.232;2023-04-25T13:24:29;17.30;;;16.63;;
15816;SDS011;8009;50.070;8.232;2023-04-25T13:26:57;16.77;;;16.17;;
15816;SDS011;8009;50.070;8.232;2023-04-25T13:29:29;17.47;;;16.77;;
15816;SDS011;8009;50.070;8.232;2023-04-25T13:31:59;17.17;;;16.50;;
15816;SDS011;8009;50.070;8.232;2023-04-25T13:34:28;15.60;;;15.00;;
15816;SDS011;8009;50.070;8.232;2023-04-25T13:36:56;18.27;;;17.57;;
15816;SDS011;8009;50.070;8.232;2023-04-25T13:39:25;14.17;;;13.57;;
15816;SDS011;8009;50.070;8.232;2023-04-25T13:41:53;18.87;;;18.17;;
15816;SDS011;8009;50.070;8.232;2023-04-25T13:44:22;15.07;;;14.43;;
15816;SDS011;8009;50.070;8.232;2023-04-25T13:46:53;14.77;;;14.07;;
15816;SDS011;8009;50.070;8.232;2023-04-25T13:49:21;15.67;;;15.07;;
15816;SDS011;8009;50.070;8.232;2023-04-25T13:51:49;16.73;;;16.13;;
15816;SDS011;8009;50.070;8.232;2023-04-25T13:54:18;13.30;;;12.80;;
15816;SDS011;8009;50.070;8.232;2023-04-25T13:56:46;17.50;;;16.80;;
15816;SDS011;8009;50.070;8.232;2023-04-25T13:59:15;17.43;;;16.73;;
15816;SDS011;8009;50.070;8.232;2023-04-25T14:01:43;17.00;;;16.30;;
15816;SDS011;8009;50.070;8.232;2023-04-25T14:04:14;16.23;;;15.53;;
15816;SDS011;8009;50.070;8.232;2023-04-25T14:06:43;18.43;;;17.63;;
15816;SDS011;8009;50.070;8.232;2023-04-25T14:09:11;18.50;;;17.80;;
15816;SDS011;8009;50.070;8.232;2023-04-25T14:11:40;16.83;;;16.13;;
15816;SDS011;8009;50.070;8.232;2023-04-25T14:14:09;15.43;;;14.83;;
15816;SDS011;8009;50.070;8.232;2023-04-25T14:16:38;16.03;;;15.40;;
15816;SDS011;8009;50.070;8.232;2023-04-25T14:19:06;16.90;;;16.27;;
15816;SDS011;8009;50.070;8.232;2023-04-25T14:21:37;16.93;;;16.33;;
15816;SDS011;8009;50.070;8.232;2023-04-25T14:24:06;16.03;;;15.43;;
15816;SDS011;8009;50.070;8.232;2023-04-25T14:26:35;16.97;;;16.17;;
15816;SDS011;8009;50.070;8.232;2023-04-25T14:29:04;15.10;;;14.50;;
15816;SDS011;8009;50.070;8.232;2023-04-25T14:31:33;16.47;;;15.87;;
15816;SDS011;8009;50.070;8.232;2023-04-25T14:34:03;14.23;;;13.67;;
15816;SDS011;8009;50.070;8.232;2023-04-25T14:36:32;17.37;;;16.70;;
15816;SDS011;8009;50.070;8.232;2023-04-25T14:39:03;15.80;;;15.13;;
15816;SDS011;8009;50.070;8.232;2023-04-25T14:41:33;14.87;;;14.27;;
15816;SDS011;8009;50.070;8.232;2023-04-25T14:44:02;22.05;;;21.20;;
15816;SDS011;8009;50.070;8.232;2023-04-25T14:46:31;14.80;;;14.20;;
15816;SDS011;8009;50.070;8.232;2023-04-25T14:48:59;12.33;;;11.87;;
15816;SDS011;8009;50.070;8.232;2023-04-25T14:51:28;14.93;;;14.37;;
15816;SDS011;8009;50.070;8.232;2023-04-25T14:53:56;16.57;;;15.97;;
15816;SDS011;8009;50.070;8.232;2023-04-25T14:56:27;14.73;;;14.13;;
15816;SDS011;8009;50.070;8.232;2023-04-25T14:58:55;15.13;;;14.57;;
15816;SDS011;8009;50.070;8.232;2023-04-25T15:01:24;13.97;;;13.47;;
15816;SDS011;8009;50.070;8.232;2023-04-25T15:03:52;18.37;;;17.67;;
15816;SDS011;8009;50.070;8.232;2023-04-25T15:06:20;14.60;;;14.10;;
15816;SDS011;8009;50.070;8.232;2023-04-25T15:08:51;13.30;;;12.70;;
15816;SDS011;8009;50.070;8.232;2023-04-25T15:11:20;13.47;;;12.97;;
15816;SDS011;8009;50.070;8.232;2023-04-25T15:13:51;14.60;;;14.10;;
15816;SDS011;8009;50.070;8.232;2023-04-25T15:16:19;17.47;;;16.77;;
15816;SDS011;8009;50.070;8.232;2023-04-25T15:18:48;16.07;;;15.47;;
15816;SDS011;8009;50.070;8.232;2023-04-25T15:21:16;14.87;;;14.30;;
15816;SDS011;8009;50.070;8.232;2023-04-25T15:23:44;16.00;;;15.40;;
15816;SDS011;8009;50.070;8.232;2023-04-25T15:26:13;13.73;;;13.23;;
15816;SDS011;8009;50.070;8.232;2023-04-25T15:28:42;14.63;;;14.03;;
15816;SDS011;8009;50.070;8.232;2023-04-25T15:31:13;15.87;;;15.27;;
15816;SDS011;8009;50.070;8.232;2023-04-25T15:33:41;16.90;;;16.30;;
15816;SDS011;8009;50.070;8.232;2023-04-25T15:36:09;13.17;;;12.67;;
15816;SDS011;8009;50.070;8.232;2023-04-25T15:38:38;17.03;;;16.33;;
15816;SDS011;8009;50.070;8.232;2023-04-25T15:41:06;12.23;;;11.80;;
15816;SDS011;8009;50.070;8.232;2023-04-25T15:43:34;14.40;;;13.90;;
15816;SDS011;8009;50.070;8.232;2023-04-25T15:46:04;15.60;;;15.00;;
15816;SDS011;8009;50.070;8.232;2023-04-25T15:48:35;14.47;;;13.93;;
15816;SDS011;8009;50.070;8.232;2023-04-25T15:51:03;16.90;;;16.30;;
15816;SDS011;8009;50.070;8.232;2023-04-25T15:53:32;15.63;;;15.03;;
15816;SDS011;8009;50.070;8.232;2023-04-25T15:56:00;16.70;;;16.10;;
15816;SDS011;8009;50.070;8.232;2023-04-25T15:58:28;16.20;;;15.60;;
15816;SDS011;8009;50.070;8.232;2023-04-25T16:00:57;13.77;;;13.27;;
15816;SDS011;8009;50.070;8.232;2023-04-25T16:03:25;15.40;;;14.80;;
15816;SDS011;8009;50.070;8.232;2023-04-25T16:05:56;19.55;;;18.83;;
15816;SDS011;8009;50.070;8.232;2023-04-25T16:08:24;15.70;;;15.10;;
15816;SDS011;8009;50.070;8.232;2023-04-25T16:10:53;15.70;;;15.10;;
15816;SDS011;8009;50.070;8.232;2023-04-25T16:13:22;17.70;;;17.00;;
15816;SDS011;8009;50.070;8.232;2023-04-25T16:15:52;15.03;;;14.43;;
15816;SDS011;8009;50.070;8.232;2023-04-25T16:18:20;13.17;;;12.67;;
15816;SDS011;8009;50.070;8.232;2023-04-25T16:20:49;15.73;;;15.13;;
15816;SDS011;8009;50.070;8.232;2023-04-25T16:23:20;13.07;;;12.57;;
15816;SDS011;8009;50.070;8.232;2023-04-25T16:25:48;12.50;;;12.03;;
15816;SDS011;8009;50.070;8.232;2023-04-25T16:28:17;13.70;;;13.20;;
15816;SDS011;8009;50.070;8.232;2023-04-25T16:30:45;16.20;;;15.60;;
15816;SDS011;8009;50.070;8.232;2023-04-25T16:33:13;14.80;;;14.20;;
15816;SDS011;8009;50.070;8.232;2023-04-25T16:35:42;16.80;;;16.20;;
15816;SDS011;8009;50.070;8.232;2023-04-25T16:38:10;17.40;;;16.70;;
15816;SDS011;8009;50.070;8.232;2023-04-25T16:40:41;15.20;;;14.60;;
15816;SDS011;8009;50.070;8.232;2023-04-25T16:43:09;15.47;;;14.87;;
15816;SDS011;8009;50.070;8.232;2023-04-25T16:45:38;15.87;;;15.27;;
15816;SDS011;8009;50.070;8.232;2023-04-25T16:48:06;13.70;;;13.20;;
15816;SDS011;8009;50.070;8.232;2023-04-25T16:50:34;13.83;;;13.33;;
15816;SDS011;8009;50.070;8.232;2023-04-25T16:53:03;16.03;;;15.43;;
15816;SDS011;8009;50.070;8.232;2023-04-25T16:55:31;15.07;;;14.47;;
15816;SDS011;8009;50.070;8.232;2023-04-25T16:58:02;14.20;;;13.70;;
15816;SDS011;8009;50.070;8.232;2023-04-25T17:00:31;13.00;;;12.50;;
15816;SDS011;8009;50.070;8.232;2023-04-25T17:03:01;15.20;;;14.60;;
15816;SDS011;8009;50.070;8.232;2023-04-25T17:05:29;13.20;;;12.70;;
15816;SDS011;8009;50.070;8.232;2023-04-25T17:07:57;14.67;;;14.10;;
15816;SDS011;8009;50.070;8.232;2023-04-25T17:10:26;14.60;;;14.07;;
15816;SDS011;8009;50.070;8.232;2023-04-25T17:12:54;12.83;;;12.33;;
15816;SDS011;8009;50.070;8.232;2023-04-25T17:15:25;13.03;;;12.53;;
15816;SDS011;8009;50.070;8.232;2023-04-25T17:17:54;14.77;;;14.17;;
15816;SDS011;8009;50.070;8.232;2023-04-25T17:20:24;14.83;;;14.27;;
15816;SDS011;8009;50.070;8.232;2023-04-25T17:22:52;13.43;;;12.93;;
15816;SDS011;8009;50.070;8.232;2023-04-25T17:25:21;12.67;;;12.17;;
15816;SDS011;8009;50.070;8.232;2023-04-25T17:27:50;13.27;;;12.77;;
15816;SDS011;8009;50.070;8.232;2023-04-25T17:30:18;13.07;;;12.57;;
15816;SDS011;8009;50.070;8.232;2023-04-25T17:32:50;14.43;;;13.93;;
15816;SDS011;8009;50.070;8.232;2023-04-25T17:35:18;13.83;;;13.23;;
15816;SDS011;8009;50.070;8.232;2023-04-25T17:37:47;11.90;;;11.50;;
15816;SDS011;8009;50.070;8.232;2023-04-25T17:40:16;13.77;;;13.27;;